Time;durP1;ratioP1;P1;durP2;ratioP2;P2;SDS_P1;SDS_P2;PMS_P1;PMS_P2;Temp;Humidity;BMP_temperature;BMP_pressure;BME280_temperature;BME280_humidity;BME280_pressure;Samples;Min_cycle;Max_cycle;Signal;HPM_P1;HPM_P2
2021/07/26 00:01:22;;;;;;;9.93;4.70;;;19.10;99.90;;;;;;5067387;28;20455;-85
2021/07/26 00:03:50;;;;;;;12.07;3.73;;;19.10;99.90;;;;;;5064107;28;20458;-85
2021/07/26 00:06:18;;;;;;;7.90;3.37;;;19.20;99.90;;;;;;5073481;28;20995;-84
2021/07/26 00:08:47;;;;;;;9.80;3.73;;;19.10;99.90;;;;;;5071789;28;20510;-84
2021/07/26 00:11:14;;;;;;;9.30;3.23;;;19.00;99.90;;;;;;5072140;28;20526;-84
2021/07/26 00:13:41;;;;;;;10.57;3.30;;;19.10;99.90;;;;;;5062391;28;21012;-85
2021/07/26 00:16:09;;;;;;;8.63;3.77;;;19.00;99.90;;;;;;5059440;28;20439;-84
2021/07/26 00:18:36;;;;;;;8.20;3.33;;;19.00;99.90;;;;;;5071256;28;21102;-84
2021/07/26 00:21:05;;;;;;;9.90;4.20;;;19.00;99.90;;;;;;5072149;28;20459;-85
2021/07/26 00:23:32;;;;;;;9.93;3.40;;;19.00;99.90;;;;;;5073206;28;20491;-84
2021/07/26 00:25:59;;;;;;;9.03;3.17;;;18.90;99.90;;;;;;5071989;28;20585;-84
2021/07/26 00:28:26;;;;;;;7.80;2.80;;;18.90;99.90;;;;;;5072114;28;20450;-84
2021/07/26 00:30:52;;;;;;;9.50;3.30;;;18.90;99.90;;;;;;5070673;28;20971;-84
2021/07/26 00:34:06;;;;;;;7.43;3.27;;;18.90;99.90;;;;;;5053344;28;20463;-84
2021/07/26 00:36:35;;;;;;;10.37;4.37;;;18.80;99.90;;;;;;4963485;28;20816;-86
2021/07/26 00:39:05;;;;;;;10.90;3.63;;;18.80;99.90;;;;;;5041435;28;20481;-84
2021/07/26 00:41:32;;;;;;;9.10;3.43;;;18.80;99.90;;;;;;5074834;28;20551;-85
2021/07/26 00:43:59;;;;;;;8.20;3.90;;;18.80;99.90;;;;;;5079549;28;20446;-84
2021/07/26 00:46:26;;;;;;;8.40;3.90;;;18.80;99.90;;;;;;5072146;28;20869;-85
2021/07/26 00:48:54;;;;;;;11.60;3.50;;;18.70;99.90;;;;;;5074683;28;21355;-83
2021/07/26 00:51:21;;;;;;;8.20;3.27;;;18.70;99.90;;;;;;5057699;28;21024;-84
2021/07/26 00:53:50;;;;;;;11.53;3.50;;;18.80;99.90;;;;;;5056748;28;20459;-83
2021/07/26 00:56:18;;;;;;;8.13;3.20;;;18.70;99.90;;;;;;5070166;28;20522;-84
2021/07/26 00:58:45;;;;;;;8.10;3.27;;;18.70;99.90;;;;;;5082817;28;20560;-84
2021/07/26 01:01:13;;;;;;;10.17;3.50;;;18.70;99.90;;;;;;5072689;28;20447;-84
2021/07/26 01:03:41;;;;;;;8.10;3.30;;;18.70;99.90;;;;;;5058872;28;20497;-84
2021/07/26 01:06:08;;;;;;;9.47;4.00;;;18.70;99.90;;;;;;5060457;28;20489;-84
2021/07/26 01:08:35;;;;;;;8.87;3.60;;;18.60;99.90;;;;;;5074384;28;20844;-84
2021/07/26 01:11:03;;;;;;;12.80;3.93;;;18.70;99.90;;;;;;5077820;28;20442;-84
2021/07/26 01:13:30;;;;;;;8.93;3.53;;;18.60;99.90;;;;;;5076265;28;20446;-84
2021/07/26 01:15:57;;;;;;;8.63;3.80;;;18.60;99.90;;;;;;5071073;28;20475;-83
2021/07/26 01:18:25;;;;;;;8.10;3.37;;;18.60;99.90;;;;;;5051656;28;20461;-84
2021/07/26 01:20:54;;;;;;;9.50;3.50;;;18.60;99.90;;;;;;5054872;28;20451;-85
2021/07/26 01:23:22;;;;;;;10.93;3.20;;;18.60;99.90;;;;;;5064550;28;20499;-85
2021/07/26 01:25:50;;;;;;;9.70;3.57;;;18.60;99.90;;;;;;5065724;28;20520;-84
2021/07/26 01:28:19;;;;;;;8.43;3.23;;;18.60;99.90;;;;;;5078413;28;20507;-83
2021/07/26 01:30:47;;;;;;;9.07;2.90;;;18.50;99.90;;;;;;5058665;28;20448;-84
2021/07/26 01:33:15;;;;;;;9.50;4.30;;;18.50;99.90;;;;;;5058676;28;20435;-85
2021/07/26 01:35:42;;;;;;;7.60;3.53;;;18.50;99.90;;;;;;5074894;28;20817;-85
2021/07/26 01:38:12;;;;;;;9.57;3.20;;;18.40;99.90;;;;;;5073616;28;20454;-84
2021/07/26 01:40:44;;;;;;;7.97;3.07;;;18.50;99.90;;;;;;5074407;28;20526;-85
2021/07/26 01:43:12;;;;;;;9.30;3.67;;;18.40;99.90;;;;;;5076243;28;20453;-84
2021/07/26 01:45:41;;;;;;;7.50;3.30;;;18.40;99.90;;;;;;5074324;28;20533;-84
2021/07/26 01:48:12;;;;;;;7.93;3.57;;;18.40;99.90;;;;;;5068684;28;20483;-84
2021/07/26 01:50:45;;;;;;;8.23;3.40;;;18.40;99.90;;;;;;5056452;28;20479;-85
2021/07/26 01:53:14;;;;;;;8.10;3.23;;;18.40;99.90;;;;;;5055713;28;20516;-83
2021/07/26 01:55:42;;;;;;;13.40;3.33;;;18.40;99.90;;;;;;5058403;28;21000;-84
2021/07/26 01:58:09;;;;;;;8.17;3.37;;;18.30;99.90;;;;;;5055231;28;20492;-86
2021/07/26 02:00:36;;;;;;;9.87;4.17;;;18.30;99.90;;;;;;5057234;28;20472;-85
2021/07/26 02:03:04;;;;;;;11.10;3.50;;;18.30;99.90;;;;;;5075456;28;20462;-84
2021/07/26 02:05:31;;;;;;;8.67;4.10;;;18.30;99.90;;;;;;5072098;28;21039;-85
2021/07/26 02:07:58;;;;;;;8.40;3.47;;;18.30;99.90;;;;;;5073809;28;20485;-84
2021/07/26 02:10:26;;;;;;;9.67;3.60;;;18.30;99.90;;;;;;5065566;28;20865;-84
2021/07/26 02:12:53;;;;;;;10.93;4.20;;;18.30;99.90;;;;;;5059328;28;20465;-85
2021/07/26 02:15:20;;;;;;;9.50;3.20;;;18.20;99.90;;;;;;5056062;28;20492;-84
2021/07/26 02:17:47;;;;;;;7.97;3.63;;;18.20;99.90;;;;;;5057684;28;20488;-85
2021/07/26 02:20:16;;;;;;;10.63;3.30;;;18.20;99.90;;;;;;5067175;28;20562;-84
2021/07/26 02:22:44;;;;;;;8.93;3.17;;;18.20;99.90;;;;;;5079858;28;20466;-85
2021/07/26 02:25:12;;;;;;;9.33;3.97;;;18.20;99.90;;;;;;5069871;28;20445;-85
2021/07/26 02:27:40;;;;;;;10.23;3.30;;;18.20;99.90;;;;;;5070619;28;21009;-84
2021/07/26 02:30:08;;;;;;;9.20;3.73;;;18.20;99.90;;;;;;5073126;28;20483;-85
2021/07/26 02:32:35;;;;;;;8.80;3.40;;;18.20;99.90;;;;;;5073659;28;20458;-85
2021/07/26 02:35:01;;;;;;;8.27;3.53;;;18.20;99.90;;;;;;5073736;28;20839;-84
2021/07/26 02:37:28;;;;;;;10.73;4.70;;;18.20;99.90;;;;;;5073464;28;20540;-85
2021/07/26 02:39:55;;;;;;;8.57;3.47;;;18.20;99.90;;;;;;5073708;28;20461;-85
2021/07/26 02:42:22;;;;;;;9.20;4.20;;;18.10;99.90;;;;;;5073551;28;20458;-86
2021/07/26 02:44:50;;;;;;;8.67;3.40;;;18.10;99.90;;;;;;5073880;28;20458;-85
2021/07/26 02:47:17;;;;;;;8.40;3.30;;;18.10;99.90;;;;;;5060423;28;20852;-84
2021/07/26 02:49:44;;;;;;;10.50;3.20;;;18.10;99.90;;;;;;5054161;28;20576;-85
2021/07/26 02:52:10;;;;;;;10.67;3.67;;;18.00;99.90;;;;;;5070729;28;20461;-84
2021/07/26 02:54:37;;;;;;;7.57;3.00;;;18.10;99.90;;;;;;5074544;28;20452;-85
2021/07/26 02:57:05;;;;;;;7.90;3.10;;;18.00;99.90;;;;;;5059227;28;20452;-88
2021/07/26 02:59:33;;;;;;;7.97;3.00;;;18.10;99.90;;;;;;5058162;28;20831;-85
2021/07/26 03:02:01;;;;;;;7.40;3.10;;;18.10;99.90;;;;;;5066053;28;20454;-84
2021/07/26 03:04:28;;;;;;;8.03;3.57;;;18.00;99.90;;;;;;5061138;28;20459;-85
2021/07/26 03:06:54;;;;;;;7.70;2.53;;;18.10;99.90;;;;;;5068787;28;20487;-86
2021/07/26 03:09:21;;;;;;;8.37;3.93;;;18.10;99.90;;;;;;5074303;28;20487;-86
2021/07/26 03:11:48;;;;;;;7.13;3.30;;;18.10;99.90;;;;;;5073859;28;20465;-85
2021/07/26 03:14:15;;;;;;;10.33;4.07;;;18.10;99.90;;;;;;5074856;28;20454;-86
2021/07/26 03:16:42;;;;;;;11.50;4.63;;;18.10;99.90;;;;;;5061506;28;21053;-85
2021/07/26 03:19:11;;;;;;;9.60;4.23;;;18.10;99.90;;;;;;5070264;28;20484;-84
2021/07/26 03:21:38;;;;;;;11.27;4.70;;;18.10;99.90;;;;;;5073376;28;20461;-86
2021/07/26 03:24:06;;;;;;;8.00;3.30;;;18.10;99.90;;;;;;5072981;28;20820;-84
2021/07/26 03:26:33;;;;;;;9.17;3.63;;;18.10;99.90;;;;;;5062598;28;20456;-86
2021/07/26 03:28:59;;;;;;;7.90;3.77;;;18.00;99.90;;;;;;5064539;28;20487;-87
2021/07/26 03:31:26;;;;;;;8.30;3.77;;;18.10;99.90;;;;;;5052805;28;20461;-86
2021/07/26 03:33:53;;;;;;;9.17;3.20;;;18.00;99.90;;;;;;5060016;28;20451;-85
2021/07/26 03:36:21;;;;;;;10.23;3.27;;;18.00;99.90;;;;;;5064330;28;20451;-85
2021/07/26 03:38:48;;;;;;;6.93;2.63;;;18.00;99.90;;;;;;5052144;28;21152;-84
2021/07/26 03:41:17;;;;;;;8.30;3.00;;;18.00;99.90;;;;;;5052967;28;20808;-86
2021/07/26 03:43:44;;;;;;;9.57;3.33;;;18.00;99.90;;;;;;5052477;28;20997;-85
2021/07/26 03:46:11;;;;;;;6.73;2.70;;;18.00;99.90;;;;;;5059669;28;20476;-86
2021/07/26 03:48:38;;;;;;;7.50;3.47;;;18.00;99.90;;;;;;5070949;28;20485;-86
2021/07/26 03:51:05;;;;;;;7.70;3.07;;;18.00;99.90;;;;;;5071438;28;20453;-85
2021/07/26 03:53:33;;;;;;;8.47;3.13;;;18.00;99.90;;;;;;5072407;28;21020;-85
2021/07/26 03:56:00;;;;;;;9.70;3.20;;;18.00;99.90;;;;;;5055336;28;20496;-86
2021/07/26 03:58:27;;;;;;;9.13;4.17;;;18.00;99.90;;;;;;5071075;28;20449;-85
2021/07/26 04:00:54;;;;;;;6.90;2.87;;;17.90;99.90;;;;;;5072064;28;20460;-85
2021/07/26 04:03:24;;;;;;;8.10;3.40;;;17.90;99.90;;;;;;5072673;28;20682;-86
2021/07/26 04:05:56;;;;;;;8.80;2.73;;;18.00;99.90;;;;;;5071922;28;20451;-89
2021/07/26 04:11:37;;;;;;;9.80;2.83;;;18.00;99.90;;;;;;1429492;26;20587;-89
2021/07/26 04:14:34;;;;;;;7.37;2.60;;;18.00;99.90;;;;;;5072223;28;20456;-89
2021/07/26 04:17:30;;;;;;;8.10;3.70;;;18.00;99.90;;;;;;5034284;28;20472;-89
2021/07/26 04:22:43;;;;;;;8.53;3.50;;;18.00;99.90;;;;;;5051733;28;20438;-86
2021/07/26 04:25:10;;;;;;;8.17;3.90;;;18.00;99.90;;;;;;5071265;28;20449;-89
2021/07/26 04:27:39;;;;;;;7.40;3.20;;;18.10;99.90;;;;;;5060736;28;20488;-89
2021/07/26 04:30:10;;;;;;;7.87;3.33;;;18.10;99.90;;;;;;5051656;28;20480;-89
2021/07/26 04:32:45;;;;;;;7.90;3.50;;;18.10;99.90;;;;;;5071795;28;20459;-89
2021/07/26 04:35:17;;;;;;;9.00;4.13;;;18.10;99.90;;;;;;5072074;28;20465;-90
2021/07/26 04:37:48;;;;;;;9.70;5.50;;;18.20;99.90;;;;;;5051997;28;20454;-89
2021/07/26 05:01:36;;;;;;;;;;;;;;;;;;;;;
2021/07/26 05:08:02;;;;;;;7.17;3.23;;;18.70;99.90;;;;;;4927916;28;20503;-89
2021/07/26 05:10:29;;;;;;;8.03;3.87;;;18.80;99.90;;;;;;5030518;22;20500;-84
2021/07/26 05:12:56;;;;;;;6.90;2.83;;;18.80;99.90;;;;;;5002622;28;20486;-85
2021/07/26 05:15:23;;;;;;;13.07;3.40;;;18.90;99.90;;;;;;5007939;28;20448;-87
2021/07/26 05:17:56;;;;;;;7.97;3.50;;;19.00;99.90;;;;;;5010920;28;20456;-84
2021/07/26 05:20:23;;;;;;;8.70;2.93;;;19.00;99.90;;;;;;5012780;28;21145;-84
2021/07/26 05:22:50;;;;;;;11.30;3.50;;;19.10;99.90;;;;;;5016817;28;20524;-83
2021/07/26 05:25:17;;;;;;;7.90;3.40;;;19.20;99.90;;;;;;5017105;28;20460;-85
2021/07/26 05:27:43;;;;;;;7.17;2.90;;;19.30;99.90;;;;;;5007852;28;20571;-83
2021/07/26 05:30:13;;;;;;;10.50;3.00;;;19.40;99.90;;;;;;5017181;28;20490;-84
2021/07/26 05:32:41;;;;;;;6.70;2.90;;;19.40;99.90;;;;;;5016685;28;20510;-85
2021/07/26 05:35:10;;;;;;;8.23;3.03;;;19.50;99.90;;;;;;4999120;28;20458;-84
2021/07/26 05:37:42;;;;;;;8.07;3.87;;;19.60;99.90;;;;;;5003563;28;20461;-85
2021/07/26 05:40:10;;;;;;;7.60;3.73;;;19.70;99.90;;;;;;5015869;28;20572;-85
2021/07/26 05:42:37;;;;;;;7.50;3.37;;;19.80;99.90;;;;;;4994834;28;20454;-84
2021/07/26 05:45:08;;;;;;;9.57;3.73;;;19.80;99.90;;;;;;4994511;28;20485;-84
2021/07/26 05:47:36;;;;;;;10.07;3.37;;;19.80;99.90;;;;;;5001969;28;20509;-85
2021/07/26 05:50:05;;;;;;;7.77;3.40;;;19.90;99.90;;;;;;5012655;28;20485;-85
2021/07/26 05:52:34;;;;;;;9.87;3.57;;;19.90;99.90;;;;;;5012896;28;20449;-85
2021/07/26 05:55:02;;;;;;;8.33;3.27;;;19.90;99.90;;;;;;5012460;28;20453;-85
2021/07/26 05:57:33;;;;;;;9.50;4.03;;;20.00;99.90;;;;;;4983739;28;20454;-85
2021/07/26 06:00:00;;;;;;;8.30;3.70;;;19.90;99.90;;;;;;5008675;28;20477;-84
2021/07/26 06:02:26;;;;;;;7.80;3.57;;;20.00;99.90;;;;;;5012726;28;20457;-84
2021/07/26 06:04:53;;;;;;;8.63;4.20;;;20.10;99.90;;;;;;5000186;28;20542;-84
2021/07/26 06:07:20;;;;;;;9.20;3.07;;;20.10;99.90;;;;;;5003171;28;21039;-83
2021/07/26 06:09:48;;;;;;;8.40;3.70;;;20.10;99.90;;;;;;4999653;28;20493;-84
2021/07/26 06:12:15;;;;;;;9.80;3.40;;;20.10;99.90;;;;;;5001493;28;20698;-84
2021/07/26 06:14:42;;;;;;;9.27;3.53;;;20.20;99.90;;;;;;5005832;28;20452;-83
2021/07/26 06:17:09;;;;;;;7.40;2.93;;;20.30;99.90;;;;;;5005119;28;20451;-84
2021/07/26 06:19:36;;;;;;;8.53;3.50;;;20.30;99.90;;;;;;5005425;28;20476;-84
2021/07/26 06:22:03;;;;;;;7.77;2.90;;;20.40;99.90;;;;;;5000870;28;20447;-85
2021/07/26 06:24:33;;;;;;;10.17;3.60;;;20.40;99.90;;;;;;5017265;28;20465;-86
2021/07/26 06:27:01;;;;;;;8.00;2.60;;;20.50;99.90;;;;;;5008427;28;20454;-83
2021/07/26 06:29:28;;;;;;;10.57;2.37;;;20.40;99.90;;;;;;5002652;28;20490;-86
2021/07/26 06:31:57;;;;;;;8.67;2.90;;;20.50;99.90;;;;;;4997261;28;20450;-82
2021/07/26 06:34:24;;;;;;;9.50;3.10;;;20.50;99.90;;;;;;4996463;28;20534;-82
2021/07/26 06:36:51;;;;;;;9.43;2.33;;;20.50;99.90;;;;;;4994596;28;20458;-84
2021/07/26 06:39:41;;;;;;;7.60;2.20;;;20.50;99.90;;;;;;4995841;28;21033;-81
2021/07/26 06:46:30;;;;;;;10.90;3.07;;;20.60;99.90;;;;;;4884618;29;20455;-83
2021/07/26 06:52:23;;;;;;;8.67;2.20;;;20.60;99.90;;;;;;4853275;29;20529;-82
2021/07/26 06:54:49;;;;;;;8.27;2.70;;;20.60;99.90;;;;;;4996678;28;20482;-83
2021/07/26 06:57:37;;;;;;;10.80;3.27;;;20.60;99.90;;;;;;4999539;28;21047;-85
2021/07/26 07:08:17;;;;;;;10.13;2.90;;;21.00;99.90;;;;;;5043586;28;20485;-81
2021/07/26 07:17:22;;;;;;;9.30;2.40;;;21.20;99.90;;;;;;4838822;29;20479;-83
2021/07/26 07:33:42;;;;;;;9.90;2.17;;;21.50;99.90;;;;;;4867030;29;20448;-83
2021/07/26 07:45:25;;;;;;;10.60;2.60;;;21.90;99.90;;;;;;5007564;28;20481;-84
2021/07/26 07:47:55;;;;;;;13.50;3.50;;;21.90;99.90;;;;;;5051995;28;20447;-82
2021/07/26 07:50:25;;;;;;;10.87;2.60;;;22.00;99.90;;;;;;5027744;28;20270;-82
2021/07/26 07:52:53;;;;;;;11.17;2.37;;;22.20;99.90;;;;;;5037875;28;20487;-82
2021/07/26 07:55:21;;;;;;;15.90;3.00;;;22.20;99.90;;;;;;5038580;28;20467;-82
2021/07/26 07:57:51;;;;;;;12.10;2.57;;;22.30;99.90;;;;;;5039559;28;20512;-82
2021/07/26 08:00:20;;;;;;;11.43;2.63;;;22.20;99.90;;;;;;5036812;28;20502;-82
2021/07/26 08:02:47;;;;;;;13.83;3.07;;;22.30;99.90;;;;;;5039032;28;20511;-82
2021/07/26 08:05:15;;;;;;;12.60;3.37;;;22.30;99.90;;;;;;5039214;28;20436;-82
2021/07/26 08:07:44;;;;;;;10.73;2.57;;;22.40;99.90;;;;;;5038459;28;20456;-81
2021/07/26 08:10:13;;;;;;;11.63;3.10;;;22.40;99.90;;;;;;5039582;28;20552;-82
2021/07/26 08:12:40;;;;;;;11.33;3.10;;;22.20;99.90;;;;;;5037068;28;20449;-81
2021/07/26 08:15:09;;;;;;;10.93;2.43;;;22.30;99.90;;;;;;5039336;28;20479;-81
2021/07/26 08:17:39;;;;;;;12.97;3.00;;;22.30;99.90;;;;;;5038929;28;20495;-82
2021/07/26 08:20:07;;;;;;;12.40;2.23;;;22.40;99.90;;;;;;5038624;28;20461;-82
2021/07/26 08:22:34;;;;;;;11.10;2.43;;;22.40;99.90;;;;;;5038856;28;20766;-81
2021/07/26 08:25:03;;;;;;;10.70;2.60;;;22.50;99.90;;;;;;5035593;28;20453;-81
2021/07/26 08:27:30;;;;;;;10.90;2.97;;;22.70;99.90;;;;;;5037409;28;20535;-81
2021/07/26 08:29:57;;;;;;;10.10;2.17;;;23.10;99.90;;;;;;5037160;28;20476;-81
2021/07/26 08:32:23;;;;;;;12.10;2.60;;;23.20;99.90;;;;;;5038559;28;20448;-82
2021/07/26 08:34:50;;;;;;;13.60;2.97;;;23.00;99.90;;;;;;5027832;28;20474;-81
2021/07/26 08:37:28;;;;;;;11.47;2.80;;;23.00;99.90;;;;;;5021255;28;20456;-83
2021/07/26 08:39:55;;;;;;;12.27;3.33;;;23.10;99.90;;;;;;5037298;28;20477;-81
2021/07/26 08:42:23;;;;;;;11.80;3.10;;;23.00;99.90;;;;;;5038959;28;20531;-81
2021/07/26 08:44:50;;;;;;;12.30;2.50;;;22.80;99.90;;;;;;5038827;28;20453;-82
2021/07/26 08:47:18;;;;;;;11.33;3.13;;;22.50;99.90;;;;;;5038974;28;20507;-82
2021/07/26 08:49:46;;;;;;;11.03;3.10;;;22.40;99.90;;;;;;5040270;28;20493;-81
2021/07/26 08:52:22;;;;;;;11.63;3.07;;;22.70;99.90;;;;;;5039575;28;20484;-83
2021/07/26 08:54:50;;;;;;;10.73;2.57;;;22.80;99.90;;;;;;5040528;28;20484;-83
2021/07/26 08:57:17;;;;;;;11.87;3.53;;;22.90;99.90;;;;;;5040555;28;20460;-81
2021/07/26 08:59:46;;;;;;;11.23;3.10;;;22.80;99.90;;;;;;5021896;28;20529;-81
2021/07/26 09:02:13;;;;;;;12.03;3.07;;;22.90;99.90;;;;;;5019489;28;20967;-82
2021/07/26 09:04:40;;;;;;;11.33;3.17;;;22.80;99.90;;;;;;5021143;28;20529;-82
2021/07/26 09:07:08;;;;;;;12.07;3.37;;;22.90;99.90;;;;;;5027516;28;20455;-80
2021/07/26 09:09:43;;;;;;;11.50;2.50;;;23.00;99.90;;;;;;5039978;28;20496;-82
2021/07/26 09:12:10;;;;;;;12.20;3.00;;;23.40;99.90;;;;;;5041705;28;20511;-81
2021/07/26 09:14:38;;;;;;;12.17;3.47;;;23.50;99.90;;;;;;5042518;28;20511;-81
2021/07/26 09:17:08;;;;;;;11.40;3.03;;;23.60;99.90;;;;;;5041199;28;20449;-82
2021/07/26 09:19:56;;;;;;;11.33;3.30;;;23.80;99.90;;;;;;5040745;28;20479;-82
2021/07/26 09:22:28;;;;;;;10.80;3.50;;;23.70;99.90;;;;;;5040360;28;20457;-81
2021/07/26 09:25:14;;;;;;;11.80;3.00;;;23.50;99.90;;;;;;5042164;28;20973;-81
2021/07/26 09:27:57;;;;;;;18.83;2.90;;;23.30;99.90;;;;;;5040982;28;20456;-82
2021/07/26 09:30:25;;;;;;;13.00;3.80;;;23.10;99.90;;;;;;5041419;28;20514;-82
2021/07/26 09:32:54;;;;;;;11.23;3.63;;;23.60;99.90;;;;;;5043707;28;20516;-82
2021/07/26 09:35:23;;;;;;;14.67;3.37;;;24.10;99.90;;;;;;5043279;28;20532;-82
2021/07/26 09:37:58;;;;;;;13.37;3.80;;;24.50;99.90;;;;;;5040688;28;20448;-82
2021/07/26 09:40:27;;;;;;;12.70;3.10;;;24.50;99.90;;;;;;5039715;28;20480;-82
2021/07/26 09:42:54;;;;;;;13.50;3.60;;;24.30;99.90;;;;;;5042169;28;20472;-82
2021/07/26 09:45:23;;;;;;;12.20;3.17;;;24.20;99.90;;;;;;5040799;28;20465;-82
2021/07/26 09:48:08;;;;;;;11.50;3.90;;;24.10;99.90;;;;;;5044469;28;20453;-80
2021/07/26 09:50:35;;;;;;;12.83;4.00;;;24.50;99.90;;;;;;5046841;28;20584;-82
2021/07/26 09:53:09;;;;;;;13.10;3.70;;;24.80;99.90;;;;;;5045202;28;20521;-81
2021/07/26 09:55:38;;;;;;;14.40;3.47;;;24.80;99.90;;;;;;5025141;28;20505;-82
2021/07/26 09:58:05;;;;;;;12.97;3.90;;;24.90;99.90;;;;;;5027128;28;20450;-81
2021/07/26 10:00:33;;;;;;;13.57;3.70;;;25.00;99.90;;;;;;5012907;28;20465;-81
2021/07/26 10:03:00;;;;;;;12.67;3.37;;;24.80;99.90;;;;;;5017408;28;20449;-83
2021/07/26 10:05:29;;;;;;;13.93;3.23;;;24.50;99.90;;;;;;5016249;28;20544;-80
2021/07/26 10:07:56;;;;;;;13.27;4.00;;;24.40;99.90;;;;;;5015916;28;20881;-81
2021/07/26 10:10:23;;;;;;;13.90;3.80;;;24.60;99.90;;;;;;5017770;28;20955;-80
2021/07/26 10:12:51;;;;;;;12.30;3.70;;;24.70;99.90;;;;;;5020592;28;20496;-82
2021/07/26 10:15:19;;;;;;;13.60;3.87;;;24.90;99.90;;;;;;5017627;28;20964;-80
2021/07/26 10:17:48;;;;;;;12.30;3.43;;;25.00;99.90;;;;;;5017033;28;20450;-80
2021/07/26 10:20:20;;;;;;;13.13;2.83;;;25.30;99.90;;;;;;5013937;28;20474;-80
2021/07/26 10:22:59;;;;;;;13.20;3.10;;;25.70;99.90;;;;;;5016965;28;20450;-81
2021/07/26 10:25:33;;;;;;;14.80;2.87;;;25.90;99.90;;;;;;5018408;28;20463;-80
2021/07/26 10:28:03;;;;;;;14.93;2.77;;;26.20;99.90;;;;;;5016573;28;20822;-81
2021/07/26 10:30:37;;;;;;;15.53;3.00;;;26.20;99.90;;;;;;5017467;28;20557;-80
2021/07/26 10:33:05;;;;;;;12.80;2.67;;;26.30;99.90;;;;;;5021932;28;20485;-80
2021/07/26 10:35:40;;;;;;;12.40;2.57;;;26.50;99.90;;;;;;5020041;28;20553;-81
2021/07/26 10:38:10;;;;;;;12.53;2.73;;;26.90;99.90;;;;;;5020487;28;20547;-81
2021/07/26 10:40:42;;;;;;;15.20;3.03;;;26.80;99.90;;;;;;5016190;28;20473;-81
2021/07/26 10:43:16;;;;;;;22.30;4.23;;;26.90;99.90;;;;;;5021373;28;20473;-81
2021/07/26 10:46:07;;;;;;;17.37;2.43;;;27.00;99.90;;;;;;5022074;28;20485;-82
2021/07/26 10:48:38;;;;;;;50.80;30.33;;;27.20;99.90;;;;;;5023138;28;20458;-84
2021/07/26 10:51:38;;;;;;;35.37;2.97;;;27.20;99.90;;;;;;5018781;28;20477;-82
2021/07/26 10:54:08;;;;;;;35.00;3.27;;;27.20;99.90;;;;;;5017994;28;20521;-83
2021/07/26 10:57:07;;;;;;;69.53;46.37;;;27.40;99.90;;;;;;5017467;28;20469;-81
2021/07/26 11:00:16;;;;;;;63.87;34.93;;;27.70;99.90;;;;;;5018440;28;20478;-81
2021/07/26 11:02:44;;;;;;;76.87;49.20;;;28.00;99.90;;;;;;5020301;28;20461;-80
2021/07/26 11:05:33;;;;;;;337.97;318.77;;;28.50;99.90;;;;;;5019227;28;20454;-82
2021/07/26 11:08:26;;;;;;;200.23;186.50;;;28.40;99.90;;;;;;5021057;28;20512;-80
2021/07/26 11:10:57;;;;;;;147.27;135.37;;;28.30;99.90;;;;;;5053587;22;20481;-84
2021/07/26 11:13:25;;;;;;;306.50;289.13;;;28.30;99.90;;;;;;4970262;28;20467;-87
2021/07/26 11:15:54;;;;;;;170.40;157.97;;;28.60;99.90;;;;;;4975047;28;20463;-85
2021/07/26 11:18:24;;;;;;;539.47;508.47;;;28.80;99.90;;;;;;4974947;28;20454;-83
2021/07/26 11:21:13;;;;;;;404.10;381.47;;;28.60;99.90;;;;;;4973365;28;20454;-85
2021/07/26 11:23:48;;;;;;;523.47;494.33;;;28.20;99.90;;;;;;4975844;28;20824;-84
2021/07/26 11:26:28;;;;;;;391.77;370.27;;;28.20;99.90;;;;;;4946400;29;20459;-83
2021/07/26 11:28:56;;;;;;;533.73;504.07;;;28.30;99.90;;;;;;4948020;28;20466;-84
2021/07/26 11:31:28;;;;;;;678.17;639.80;;;28.50;99.90;;;;;;4955920;29;20472;-84
2021/07/26 11:34:07;;;;;;;120.73;110.60;;;28.10;99.90;;;;;;4956496;28;20539;-83
2021/07/26 11:36:34;;;;;;;184.40;171.60;;;28.30;99.90;;;;;;4974794;28;20451;-84
2021/07/26 11:39:04;;;;;;;1999.90;999.90;;;28.90;99.90;;;;;;4973607;28;20542;-84
2021/07/26 11:41:34;;;;;;;1999.90;999.90;;;29.20;99.90;;;;;;4974750;28;20467;-84
2021/07/26 11:44:01;;;;;;;1999.90;999.90;;;29.50;99.90;;;;;;4972464;28;20546;-83
2021/07/26 11:46:29;;;;;;;1999.90;999.90;;;29.40;99.90;;;;;;4974407;28;20466;-86
2021/07/26 11:48:58;;;;;;;1999.90;999.90;;;28.90;99.90;;;;;;4973410;28;20459;-84
2021/07/26 11:51:38;;;;;;;1999.90;999.90;;;28.90;99.90;;;;;;4974037;28;20475;-84
2021/07/26 11:54:07;;;;;;;1999.90;999.90;;;29.40;99.90;;;;;;4971380;28;20555;-85
2021/07/26 11:56:36;;;;;;;1999.90;999.90;;;29.50;99.90;;;;;;4954191;29;20824;-84
2021/07/26 11:59:17;;;;;;;1999.90;999.90;;;29.50;99.90;;;;;;4955909;29;20461;-86
2021/07/26 12:01:49;;;;;;;1999.90;999.90;;;29.40;99.90;;;;;;4954975;29;20503;-83
2021/07/26 12:04:16;;;;;;;1999.90;999.90;;;30.00;99.90;;;;;;4962393;28;20456;-86
2021/07/26 12:06:54;;;;;;;1999.90;999.90;;;30.10;99.90;;;;;;4954495;29;20440;-85
2021/07/26 12:09:22;;;;;;;1999.90;999.90;;;30.20;99.90;;;;;;4966815;28;20808;-85
2021/07/26 12:11:50;;;;;;;1999.90;999.90;;;30.50;99.90;;;;;;4973861;28;20475;-85
2021/07/26 12:14:24;;;;;;;1999.90;999.90;;;30.30;99.90;;;;;;4972539;28;20831;-87
2021/07/26 12:17:05;;;;;;;1999.90;999.90;;;29.80;99.90;;;;;;4957591;29;20462;-86
2021/07/26 12:19:34;;;;;;;1999.90;999.90;;;28.90;99.90;;;;;;4956039;29;20488;-86
2021/07/26 12:22:21;;;;;;;1999.90;999.90;;;28.40;99.90;;;;;;4955147;29;20480;-87
2021/07/26 12:25:01;;;;;;;1999.90;999.90;;;28.70;99.90;;;;;;4956196;28;20951;-86
2021/07/26 12:27:34;;;;;;;1999.90;999.90;;;28.50;99.90;;;;;;4956246;29;20460;-86
2021/07/26 12:30:04;;;;;;;1999.90;999.90;;;28.10;99.90;;;;;;4971931;28;20494;-86
2021/07/26 12:32:33;;;;;;;1999.90;999.90;;;28.60;99.90;;;;;;4974457;28;20554;-86
2021/07/26 12:35:26;;;;;;;1999.90;999.90;;;28.90;99.90;;;;;;4964615;28;20832;-86
2021/07/26 12:38:20;;;;;;;1999.90;999.90;;;28.40;99.90;;;;;;4954932;29;21010;-87
2021/07/26 12:41:04;;;;;;;1999.90;999.90;;;28.20;99.90;;;;;;4953830;29;20873;-87
2021/07/26 12:43:32;;;;;;;1999.90;999.90;;;28.10;99.90;;;;;;4955141;29;20441;-86
2021/07/26 12:46:01;;;;;;;1999.90;999.90;;;28.40;99.90;;;;;;4954871;28;20996;-85
2021/07/26 12:48:29;;;;;;;1999.90;999.90;;;28.90;99.90;;;;;;4966352;28;20542;-85
2021/07/26 12:50:58;;;;;;;1999.90;999.90;;;29.20;99.90;;;;;;4974360;28;20487;-85
2021/07/26 12:53:25;;;;;;;1999.90;999.90;;;29.40;99.90;;;;;;4972880;28;20953;-85
2021/07/26 12:55:53;;;;;;;1999.90;999.90;;;29.50;99.90;;;;;;4957319;28;20456;-84
2021/07/26 12:58:23;;;;;;;1999.90;999.90;;;29.90;99.90;;;;;;4957955;28;20457;-84
2021/07/26 13:00:54;;;;;;;1999.90;999.90;;;30.50;99.90;;;;;;4966080;28;20449;-85
2021/07/26 13:03:21;;;;;;;1999.90;999.90;;;30.70;99.90;;;;;;4959131;28;20515;-85
2021/07/26 13:05:49;;;;;;;1999.90;999.90;;;31.20;99.90;;;;;;4957598;29;20444;-86
2021/07/26 13:08:18;;;;;;;1999.90;999.90;;;31.10;99.90;;;;;;4957854;28;20919;-85
2021/07/26 13:10:46;;;;;;;1999.90;999.90;;;30.60;99.90;;;;;;4970274;28;20488;-86
2021/07/26 13:13:14;;;;;;;1999.90;999.90;;;30.40;99.90;;;;;;4975559;29;20428;-85
2021/07/26 13:15:43;;;;;;;1999.90;999.90;;;30.10;99.90;;;;;;4974445;29;20441;-85
2021/07/26 13:18:12;;;;;;;1999.90;999.90;;;29.80;99.90;;;;;;4976633;28;20444;-86
2021/07/26 13:20:40;;;;;;;1999.90;999.90;;;29.80;99.90;;;;;;4976941;28;20602;-85
2021/07/26 13:23:07;;;;;;;1999.90;999.90;;;29.50;99.90;;;;;;4965965;29;20448;-85
2021/07/26 13:25:34;;;;;;;1999.90;999.90;;;29.40;99.90;;;;;;4958390;28;20543;-85
2021/07/26 13:28:01;;;;;;;1999.90;999.90;;;28.70;99.90;;;;;;4969596;28;20951;-86
2021/07/26 13:30:29;;;;;;;1999.90;999.90;;;28.30;99.90;;;;;;4957076;29;20603;-86
2021/07/26 13:32:56;;;;;;;1999.90;999.90;;;28.10;99.90;;;;;;4955850;29;20471;-85
2021/07/26 13:35:25;;;;;;;1999.90;999.90;;;27.80;99.90;;;;;;4958023;29;20452;-85
2021/07/26 13:37:53;;;;;;;1999.90;999.90;;;27.50;99.90;;;;;;4957624;29;20455;-86
2021/07/26 13:40:20;;;;;;;1999.90;999.90;;;27.30;99.90;;;;;;4957264;29;20478;-86
2021/07/26 13:42:47;;;;;;;1999.90;999.90;;;27.10;99.90;;;;;;4956866;28;20904;-86
2021/07/26 13:45:15;;;;;;;1999.90;999.90;;;27.20;99.90;;;;;;4956485;29;20452;-87
2021/07/26 13:47:42;;;;;;;1999.90;999.90;;;27.20;99.90;;;;;;4956692;29;20451;-86
2021/07/26 13:50:10;;;;;;;1999.90;999.90;;;27.20;99.90;;;;;;4956363;29;20488;-86
2021/07/26 13:52:39;;;;;;;1999.90;999.90;;;27.20;99.90;;;;;;4957655;29;20555;-84
2021/07/26 13:55:06;;;;;;;1999.90;999.90;;;26.90;99.90;;;;;;4956530;29;20463;-85
2021/07/26 13:57:34;;;;;;;1999.90;999.90;;;27.30;99.90;;;;;;4958226;29;20837;-84
2021/07/26 14:00:00;;;;;;;1999.90;999.90;;;27.40;99.90;;;;;;4955912;29;21160;-85
2021/07/26 14:02:28;;;;;;;1999.90;999.90;;;27.80;99.90;;;;;;4956754;29;20479;-85
2021/07/26 14:04:56;;;;;;;1999.90;999.90;;;27.90;99.90;;;;;;4957307;28;20463;-86